TimeEDT,TemperatureF,Dew PointF,Humidity,Sea Level PressureIn,VisibilityMPH,Wind Direction,Wind SpeedMPH,Gust SpeedMPH,PrecipitationIn,Events,Conditions,WindDirDegrees,DateUTC
12:51 AM,38.8,31.1,74,31.05,10.0,Calm,Calm,-,N/A,,Clear,0,2013-04-26 04:51:00
1:51 AM,37.9,31.1,76,31.06,10.0,Calm,Calm,-,N/A,,Clear,0,2013-04-26 05:51:00
2:51 AM,36.0,31.1,82,31.06,10.0,WNW,3.5,-,N/A,,Clear,300,2013-04-26 06:51:00
3:51 AM,34.9,30.0,82,31.08,10.0,NW,4.6,-,N/A,,Clear,310,2013-04-26 07:51:00
4:51 AM,34.0,30.0,85,31.10,10.0,NW,6.9,-,N/A,,Clear,320,2013-04-26 08:51:00
5:51 AM,32.9,29.1,86,31.12,10.0,NW,5.8,-,N/A,,Clear,320,2013-04-26 09:51:00
6:51 AM,36.0,30.0,79,31.15,10.0,NNW,5.8,-,N/A,,Clear,330,2013-04-26 10:51:00
7:51 AM,41.9,30.0,63,31.15,10.0,NW,4.6,-,N/A,,Clear,320,2013-04-26 11:51:00
8:51 AM,50.0,28.0,43,31.15,10.0,East,6.9,-,N/A,,Clear,90,2013-04-26 12:51:00
9:51 AM,54.0,29.1,39,28.21,10.0,East,6.9,-,N/A,,Clear,80,2013-04-26 13:51:00
10:51 AM,56.8,28.0,33,28.21,10.0,ESE,8.1,-,N/A,,Clear,110,2013-04-26 14:51:00
11:51 AM,57.9,28.0,32,28.20,10.0,East,6.9,-,N/A,,Clear,100,2013-04-26 15:51:00
12:51 PM,59.9,29.1,31,31.13,10.0,ENE,9.2,-,N/A,,Clear,70,2013-04-26 16:51:00
1:51 PM,61.0,30.0,31,31.12,10.0,East,8.1,-,N/A,,Mostly Cloudy,100,2013-04-26 17:51:00
2:51 PM,59.9,32.0,35,31.12,10.0,SSE,9.2,18.4,N/A,,Mostly Cloudy,150,2013-04-26 18:51:00
3:51 PM,59.0,32.0,36,31.12,10.0,ENE,11.5,-,N/A,,Partly Cloudy,70,2013-04-26 19:51:00
4:51 PM,57.9,32.0,37,31.13,10.0,East,12.7,-,N/A,,Mostly Cloudy,100,2013-04-26 20:51:00
5:51 PM,55.9,32.0,40,31.14,10.0,East,9.2,-,N/A,,Mostly Cloudy,80,2013-04-26 21:51:00
6:51 PM,55.9,32.0,40,31.15,10.0,ENE,8.1,-,N/A,,Mostly Cloudy,70,2013-04-26 22:51:00
7:51 PM,52.9,32.0,45,28.22,10.0,East,8.1,-,N/A,,Mostly Cloudy,90,2013-04-26 23:51:00
8:51 PM,50.9,32.0,48,28.23,10.0,East,6.9,-,N/A,,Partly Cloudy,90,2013-04-27 00:51:00
9:51 PM,47.8,32.0,54,28.23,10.0,Calm,Calm,-,N/A,,Scattered Clouds,0,2013-04-27 01:51:00
10:51 PM,45.9,34.0,63,28.23,10.0,Calm,Calm,-,N/A,,Partly Cloudy,0,2013-04-27 02:51:00
11:51 PM,43.9,34.0,68,28.23,10.0,Calm,Calm,-,N/A,,Partly Cloudy,0,2013-04-27 03:51:00